createdAt,value
2018-06-01T00:05:21.126Z,19.40
2018-06-01T00:11:26.245Z,19.30
2018-06-01T00:17:30.601Z,19.30
2018-06-01T00:23:34.949Z,19.30
2018-06-01T00:29:40.099Z,19.00
2018-06-01T00:35:44.435Z,19.00
2018-06-01T00:41:48.757Z,19.00
2018-06-01T00:47:53.985Z,18.90
2018-06-01T00:53:58.324Z,18.90
2018-06-01T01:00:02.692Z,18.90
2018-06-01T01:06:07.040Z,18.80
2018-06-01T01:12:11.403Z,18.80
2018-06-01T01:18:15.805Z,18.70
2018-06-01T01:24:20.188Z,18.60
2018-06-01T01:30:24.687Z,18.60
2018-06-01T01:36:29.404Z,18.60
2018-06-01T01:42:34.514Z,18.60
2018-06-01T01:48:38.868Z,18.60
2018-06-01T01:54:43.285Z,18.70
2018-06-01T02:00:47.640Z,18.60
2018-06-01T02:06:52.185Z,18.60
2018-06-01T02:12:56.602Z,18.60
2018-06-01T02:19:00.967Z,18.60
2018-06-01T02:25:05.339Z,18.80
2018-06-01T02:31:09.697Z,18.90
2018-06-01T02:37:14.822Z,19.10
2018-06-01T02:43:19.180Z,19.10
2018-06-01T02:49:23.544Z,19.00
2018-06-01T02:55:28.669Z,18.80
2018-06-01T03:01:33.026Z,18.80
2018-06-01T03:07:37.368Z,18.80
2018-06-01T03:13:42.488Z,18.70
2018-06-01T03:19:46.865Z,18.70
2018-06-01T03:25:51.515Z,18.70
2018-06-01T03:31:56.750Z,18.90
2018-06-01T03:38:01.985Z,19.00
2018-06-01T03:44:07.156Z,19.00
2018-06-01T03:50:11.500Z,19.00
2018-06-01T03:56:15.858Z,19.10
2018-06-01T04:02:21.238Z,19.30
2018-06-01T04:08:25.749Z,19.20
2018-06-01T04:14:30.103Z,19.30
2018-06-01T04:20:34.452Z,19.30
2018-06-01T04:26:38.817Z,19.30
2018-06-01T04:32:43.164Z,19.30
2018-06-01T04:38:47.512Z,19.40
2018-06-01T04:44:52.659Z,19.70
2018-06-01T04:50:57.040Z,19.70
2018-06-01T04:57:01.397Z,20.00
2018-06-01T05:03:05.761Z,20.10
2018-06-01T05:09:10.117Z,20.50
2018-06-01T05:15:14.492Z,20.80
2018-06-01T05:21:18.865Z,21.10
2018-06-01T05:27:24.135Z,21.20
2018-06-01T05:33:29.217Z,21.40
2018-06-01T05:39:33.969Z,21.40
2018-06-01T05:45:38.315Z,21.60
2018-06-01T05:51:42.693Z,21.90
2018-06-01T05:57:47.069Z,22.00
2018-06-01T06:03:51.497Z,22.00
2018-06-01T06:09:55.930Z,22.20
2018-06-01T06:16:00.289Z,22.50
2018-06-01T06:22:04.640Z,22.40
2018-06-01T06:28:08.960Z,22.30
2018-06-01T06:34:13.341Z,22.30
2018-06-01T06:40:17.697Z,22.70
2018-06-01T06:46:22.337Z,23.40
2018-06-01T06:52:26.650Z,24.10
2018-06-01T06:58:31.053Z,24.40
2018-06-01T07:04:35.401Z,24.40
2018-06-01T07:10:39.819Z,24.60
2018-06-01T07:16:44.143Z,24.60
2018-06-01T07:22:48.548Z,24.70
2018-06-01T07:28:52.906Z,25.00
2018-06-01T07:34:57.269Z,25.00
2018-06-01T07:41:01.671Z,25.10
2018-06-01T07:47:06.040Z,25.10
2018-06-01T07:53:10.394Z,25.20
2018-06-01T07:59:14.742Z,25.40
2018-06-01T08:05:19.949Z,25.40
2018-06-01T08:11:24.318Z,25.40
2018-06-01T08:17:29.454Z,25.70
2018-06-01T08:23:33.804Z,25.70
2018-06-01T08:29:38.156Z,25.90
2018-06-01T08:35:43.289Z,26.50
2018-06-01T08:41:47.636Z,26.50
2018-06-01T08:47:52.024Z,27.10
2018-06-01T08:53:56.409Z,26.80
2018-06-01T09:00:00.767Z,27.10
2018-06-01T09:06:05.136Z,26.90
2018-06-01T09:12:10.258Z,26.00
2018-06-01T09:18:14.617Z,25.90
2018-06-01T09:24:19.112Z,25.50
2018-06-01T09:30:24.308Z,24.70
2018-06-01T09:36:28.747Z,24.70
2018-06-01T09:42:33.887Z,23.80
2018-06-01T09:48:38.233Z,23.80
2018-06-01T09:54:42.593Z,23.50
2018-06-01T10:00:52.399Z,23.20
2018-06-01T10:06:57.550Z,22.30
2018-06-01T10:13:01.902Z,22.30
2018-06-01T10:19:06.245Z,21.90
2018-06-01T10:25:10.745Z,21.80
2018-06-01T10:31:15.083Z,21.70
2018-06-01T10:37:20.166Z,21.20
2018-06-01T10:43:24.555Z,21.20
2018-06-01T10:49:28.986Z,21.00
2018-06-01T10:55:33.339Z,20.90
2018-06-01T11:01:37.719Z,20.80
2018-06-01T11:07:42.044Z,20.80
2018-06-01T11:13:47.192Z,20.70
2018-06-01T11:19:51.496Z,20.70
2018-06-01T11:25:55.857Z,20.50
2018-06-01T11:32:00.227Z,20.40
2018-06-01T11:38:04.568Z,20.50
2018-06-01T11:44:09.039Z,20.80
2018-06-01T11:50:13.492Z,20.90
2018-06-01T11:56:18.786Z,21.50
2018-06-01T12:02:23.153Z,21.50
2018-06-01T12:08:28.296Z,23.50
2018-06-01T12:14:32.682Z,23.50
2018-06-01T12:20:37.068Z,24.20
2018-06-01T12:26:41.561Z,24.40
2018-06-01T12:32:46.024Z,24.40
2018-06-01T12:38:51.249Z,25.20
2018-06-01T12:44:56.320Z,25.90
2018-06-01T12:51:00.712Z,25.80
2018-06-01T12:57:05.835Z,27.40
2018-06-01T13:03:10.181Z,27.30
2018-06-01T13:09:15.343Z,28.90
2018-06-01T13:15:20.705Z,28.80
2018-06-01T13:21:25.034Z,29.70
2018-06-01T13:27:29.417Z,29.10
2018-06-01T13:33:33.771Z,28.10
2018-06-01T13:39:38.128Z,29.80
2018-06-01T13:45:42.496Z,29.70
2018-06-01T13:51:46.844Z,30.30
2018-06-01T13:57:51.254Z,29.90
2018-06-01T14:03:55.593Z,29.60
2018-06-01T14:09:59.947Z,29.40
2018-06-01T14:16:05.061Z,29.70
2018-06-01T14:22:09.411Z,29.70
2018-06-01T14:28:14.519Z,29.20
2018-06-01T14:34:19.625Z,28.30
2018-06-01T14:40:24.017Z,28.30
2018-06-01T14:46:29.138Z,28.10
2018-06-01T14:52:33.584Z,28.10
2018-06-01T14:58:37.922Z,28.20
2018-06-01T15:04:43.287Z,29.50
2018-06-01T15:10:47.658Z,29.50
2018-06-01T15:16:52.416Z,29.70
2018-06-01T15:22:56.816Z,30.00
2018-06-01T15:29:01.175Z,30.40
2018-06-01T15:35:05.947Z,30.50
2018-06-01T15:41:10.277Z,29.90
2018-06-01T15:47:15.438Z,29.90
2018-06-01T15:53:19.811Z,29.90
2018-06-01T15:59:24.964Z,29.10
2018-06-01T16:05:29.385Z,29.00
2018-06-01T16:11:33.729Z,29.10
2018-06-01T16:17:38.067Z,28.80
2018-06-01T16:23:43.177Z,28.70
2018-06-01T16:29:48.298Z,29.00
2018-06-01T16:35:52.638Z,28.90
2018-06-01T16:41:57.754Z,31.30
2018-06-01T16:48:02.105Z,31.30
2018-06-01T16:54:07.222Z,32.20
2018-06-01T17:00:11.565Z,32.20
2018-06-01T17:06:16.672Z,30.20
2018-06-01T17:12:21.329Z,30.10
2018-06-01T17:18:25.650Z,30.10
2018-06-01T17:24:30.083Z,29.90
2018-06-01T17:30:35.199Z,27.60
2018-06-01T17:36:39.541Z,27.60
2018-06-01T17:42:43.886Z,27.00
2018-06-01T17:48:48.256Z,26.60
2018-06-01T17:54:52.634Z,26.60
2018-06-01T18:00:56.986Z,26.60
2018-06-01T18:07:01.303Z,26.60
2018-06-01T18:13:05.703Z,26.40
2018-06-01T18:19:10.818Z,26.30
2018-06-01T18:25:15.161Z,26.30
2018-06-01T18:31:20.269Z,28.10
2018-06-01T18:37:25.424Z,27.00
2018-06-01T18:43:29.769Z,27.00
2018-06-01T18:49:34.128Z,25.60
2018-06-01T18:55:38.481Z,24.60
2018-06-01T19:01:42.845Z,23.90
2018-06-01T19:07:47.960Z,22.90
2018-06-01T19:13:52.421Z,22.90
2018-06-01T19:19:57.553Z,22.20
2018-06-01T19:26:01.898Z,22.20
2018-06-01T19:32:06.250Z,21.80
2018-06-01T19:38:10.688Z,21.60
2018-06-01T19:44:15.063Z,21.40
2018-06-01T19:50:19.455Z,21.30
2018-06-01T19:56:23.802Z,21.20
2018-06-01T20:02:28.151Z,21.00
2018-06-01T20:08:32.497Z,20.70
2018-06-01T20:14:36.837Z,20.60
2018-06-01T20:20:41.185Z,20.60
2018-06-01T20:26:45.908Z,20.60
2018-06-01T20:32:50.255Z,20.70
2018-06-01T20:38:54.604Z,20.70
2018-06-01T20:44:58.952Z,20.60
2018-06-01T20:51:04.073Z,20.50
2018-06-01T20:57:08.420Z,20.50
2018-06-01T21:03:12.765Z,20.50
2018-06-01T21:09:17.109Z,20.40
2018-06-01T21:15:21.462Z,20.30
2018-06-01T21:21:26.587Z,20.20
2018-06-01T21:27:31.760Z,20.20
2018-06-01T21:33:36.113Z,20.20
2018-06-01T21:39:41.240Z,20.20
2018-06-01T21:45:45.549Z,20.20
2018-06-01T21:51:50.795Z,19.90
2018-06-01T21:57:55.188Z,19.90
2018-06-01T22:03:59.539Z,19.90
2018-06-01T22:10:03.888Z,19.80
2018-06-01T22:16:09.027Z,19.70
2018-06-01T22:22:14.303Z,19.70
2018-06-01T22:28:18.679Z,19.60
2018-06-01T22:34:23.956Z,19.60
2018-06-01T22:40:29.073Z,19.60
2018-06-01T22:46:33.383Z,19.60
2018-06-01T22:52:38.765Z,19.60
2018-06-01T22:58:43.349Z,19.60
2018-06-01T23:04:47.684Z,19.50
2018-06-01T23:10:52.791Z,19.50
2018-06-01T23:16:57.094Z,19.50
2018-06-01T23:23:01.967Z,19.60
2018-06-01T23:29:06.310Z,19.50
2018-06-01T23:35:11.417Z,19.60
2018-06-01T23:41:15.764Z,19.50
2018-06-01T23:47:20.119Z,19.50
2018-06-01T23:53:24.488Z,19.40
2018-06-01T23:59:28.853Z,19.40
